sensor_id;sensor_type;location;lat;lon;timestamp;temperature;humidity
31542;DHT22;18152;49.986;8.646;2023-04-24T00:00:40;11.20;99.90
31542;DHT22;18152;49.986;8.646;2023-04-24T00:03:06;11.20;99.90
31542;DHT22;18152;49.986;8.646;2023-04-24T00:05:33;11.20;99.90
31542;DHT22;18152;49.986;8.646;2023-04-24T00:07:59;11.30;99.90
31542;DHT22;18152;49.986;8.646;2023-04-24T00:10:25;11.20;99.90
31542;DHT22;18152;49.986;8.646;2023-04-24T00:12:50;11.20;99.90
31542;DHT22;18152;49.986;8.646;2023-04-24T00:15:16;11.20;99.90
31542;DHT22;18152;49.986;8.646;2023-04-24T00:17:41;11.20;99.90
31542;DHT22;18152;49.986;8.646;2023-04-24T00:20:07;11.20;99.90
31542;DHT22;18152;49.986;8.646;2023-04-24T00:22:33;11.20;99.90
31542;DHT22;18152;49.986;8.646;2023-04-24T00:24:59;11.20;99.90
31542;DHT22;18152;49.986;8.646;2023-04-24T00:27:24;11.20;99.90
31542;DHT22;18152;49.986;8.646;2023-04-24T00:29:51;11.30;99.90
31542;DHT22;18152;49.986;8.646;2023-04-24T00:32:16;11.20;99.90
31542;DHT22;18152;49.986;8.646;2023-04-24T00:34:43;11.30;99.90
31542;DHT22;18152;49.986;8.646;2023-04-24T00:37:08;11.20;99.90
31542;DHT22;18152;49.986;8.646;2023-04-24T00:39:34;11.30;99.90
31542;DHT22;18152;49.986;8.646;2023-04-24T00:41:59;11.30;99.90
31542;DHT22;18152;49.986;8.646;2023-04-24T00:44:26;11.30;99.90
31542;DHT22;18152;49.986;8.646;2023-04-24T00:46:52;11.30;99.90
31542;DHT22;18152;49.986;8.646;2023-04-24T00:49:23;11.30;99.90
31542;DHT22;18152;49.986;8.646;2023-04-24T00:51:49;11.30;99.90
31542;DHT22;18152;49.986;8.646;2023-04-24T00:54:17;11.30;99.90
31542;DHT22;18152;49.986;8.646;2023-04-24T00:56:44;11.30;99.90
31542;DHT22;18152;49.986;8.646;2023-04-24T00:59:10;11.20;99.90
31542;DHT22;18152;49.986;8.646;2023-04-24T01:01:37;11.20;99.90
31542;DHT22;18152;49.986;8.646;2023-04-24T01:04:02;11.20;99.90
31542;DHT22;18152;49.986;8.646;2023-04-24T01:06:29;11.20;99.90
31542;DHT22;18152;49.986;8.646;2023-04-24T01:08:57;11.20;99.90
31542;DHT22;18152;49.986;8.646;2023-04-24T01:11:24;11.30;99.90
31542;DHT22;18152;49.986;8.646;2023-04-24T01:13:50;11.20;99.90
31542;DHT22;18152;49.986;8.646;2023-04-24T01:16:15;11.30;99.90
31542;DHT22;18152;49.986;8.646;2023-04-24T01:18:43;11.20;99.90
31542;DHT22;18152;49.986;8.646;2023-04-24T01:21:09;11.20;99.90
31542;DHT22;18152;49.986;8.646;2023-04-24T01:23:34;11.20;99.90
31542;DHT22;18152;49.986;8.646;2023-04-24T01:26:00;11.20;99.90
31542;DHT22;18152;49.986;8.646;2023-04-24T01:28:26;11.20;99.90
31542;DHT22;18152;49.986;8.646;2023-04-24T01:30:52;11.10;99.90
31542;DHT22;18152;49.986;8.646;2023-04-24T01:33:21;11.10;99.90
31542;DHT22;18152;49.986;8.646;2023-04-24T01:35:47;11.00;99.90
31542;DHT22;18152;49.986;8.646;2023-04-24T01:38:13;11.00;99.90
31542;DHT22;18152;49.986;8.646;2023-04-24T01:40:39;10.90;99.90
31542;DHT22;18152;49.986;8.646;2023-04-24T01:43:05;10.90;99.90
31542;DHT22;18152;49.986;8.646;2023-04-24T01:45:31;11.00;99.90
31542;DHT22;18152;49.986;8.646;2023-04-24T01:47:57;11.00;99.90
31542;DHT22;18152;49.986;8.646;2023-04-24T01:50:22;11.00;99.90
31542;DHT22;18152;49.986;8.646;2023-04-24T01:52:48;11.00;99.90
31542;DHT22;18152;49.986;8.646;2023-04-24T01:55:14;11.10;99.90
31542;DHT22;18152;49.986;8.646;2023-04-24T01:57:40;11.10;99.90
31542;DHT22;18152;49.986;8.646;2023-04-24T02:00:06;11.10;99.90
31542;DHT22;18152;49.986;8.646;2023-04-24T02:02:32;11.10;99.90
31542;DHT22;18152;49.986;8.646;2023-04-24T02:04:58;11.10;99.90
31542;DHT22;18152;49.986;8.646;2023-04-24T02:07:24;11.10;99.90
31542;DHT22;18152;49.986;8.646;2023-04-24T02:09:50;11.10;99.90
31542;DHT22;18152;49.986;8.646;2023-04-24T02:12:16;11.10;99.90
31542;DHT22;18152;49.986;8.646;2023-04-24T02:14:43;11.20;99.90
31542;DHT22;18152;49.986;8.646;2023-04-24T02:17:08;11.10;99.90
31542;DHT22;18152;49.986;8.646;2023-04-24T02:19:34;11.10;99.90
31542;DHT22;18152;49.986;8.646;2023-04-24T02:21:59;11.10;99.90
31542;DHT22;18152;49.986;8.646;2023-04-24T02:24:25;11.10;99.90
31542;DHT22;18152;49.986;8.646;2023-04-24T02:26:50;11.10;99.90
31542;DHT22;18152;49.986;8.646;2023-04-24T02:29:16;11.00;99.90
31542;DHT22;18152;49.986;8.646;2023-04-24T02:31:42;10.90;99.90
31542;DHT22;18152;49.986;8.646;2023-04-24T02:34:07;10.80;99.90
31542;DHT22;18152;49.986;8.646;2023-04-24T02:36:33;10.80;99.90
31542;DHT22;18152;49.986;8.646;2023-04-24T02:38:58;10.70;99.90
31542;DHT22;18152;49.986;8.646;2023-04-24T02:41:24;10.70;99.90
31542;DHT22;18152;49.986;8.646;2023-04-24T02:43:49;10.60;99.90
31542;DHT22;18152;49.986;8.646;2023-04-24T02:46:15;10.50;99.90
31542;DHT22;18152;49.986;8.646;2023-04-24T02:48:41;10.50;99.90
31542;DHT22;18152;49.986;8.646;2023-04-24T02:51:06;10.50;99.90
31542;DHT22;18152;49.986;8.646;2023-04-24T02:53:32;10.50;99.90
31542;DHT22;18152;49.986;8.646;2023-04-24T02:55:58;10.50;99.90
31542;DHT22;18152;49.986;8.646;2023-04-24T02:58:23;10.50;99.90
31542;DHT22;18152;49.986;8.646;2023-04-24T03:00:53;10.50;99.90
31542;DHT22;18152;49.986;8.646;2023-04-24T03:03:19;10.60;99.90
31542;DHT22;18152;49.986;8.646;2023-04-24T03:05:44;10.50;99.90
31542;DHT22;18152;49.986;8.646;2023-04-24T03:08:10;10.60;99.90
31542;DHT22;18152;49.986;8.646;2023-04-24T03:10:35;10.50;99.90
31542;DHT22;18152;49.986;8.646;2023-04-24T03:13:01;10.50;99.90
31542;DHT22;18152;49.986;8.646;2023-04-24T03:15:26;10.50;99.90
31542;DHT22;18152;49.986;8.646;2023-04-24T03:17:52;10.50;99.90
31542;DHT22;18152;49.986;8.646;2023-04-24T03:20:17;10.50;99.90
31542;DHT22;18152;49.986;8.646;2023-04-24T03:22:43;10.50;99.90
31542;DHT22;18152;49.986;8.646;2023-04-24T03:25:09;10.60;99.90
31542;DHT22;18152;49.986;8.646;2023-04-24T03:27:35;10.50;99.90
31542;DHT22;18152;49.986;8.646;2023-04-24T03:30:01;10.40;99.90
31542;DHT22;18152;49.986;8.646;2023-04-24T03:32:27;10.40;99.90
31542;DHT22;18152;49.986;8.646;2023-04-24T03:34:52;10.30;99.90
31542;DHT22;18152;49.986;8.646;2023-04-24T03:37:18;10.30;99.90
31542;DHT22;18152;49.986;8.646;2023-04-24T03:39:44;10.30;99.90
31542;DHT22;18152;49.986;8.646;2023-04-24T03:42:09;10.30;99.90
31542;DHT22;18152;49.986;8.646;2023-04-24T03:44:35;10.30;99.90
31542;DHT22;18152;49.986;8.646;2023-04-24T03:47:01;10.30;99.90
31542;DHT22;18152;49.986;8.646;2023-04-24T03:49:27;10.20;99.90
31542;DHT22;18152;49.986;8.646;2023-04-24T03:51:52;10.30;99.90
31542;DHT22;18152;49.986;8.646;2023-04-24T03:54:19;10.20;99.90
31542;DHT22;18152;49.986;8.646;2023-04-24T03:56:44;10.10;99.90
31542;DHT22;18152;49.986;8.646;2023-04-24T03:59:10;10.20;99.90
31542;DHT22;18152;49.986;8.646;2023-04-24T04:01:36;10.10;99.90
31542;DHT22;18152;49.986;8.646;2023-04-24T04:04:03;10.10;99.90
31542;DHT22;18152;49.986;8.646;2023-04-24T04:06:29;10.00;99.90
31542;DHT22;18152;49.986;8.646;2023-04-24T04:08:56;10.00;99.90
31542;DHT22;18152;49.986;8.646;2023-04-24T04:11:22;10.10;99.90
31542;DHT22;18152;49.986;8.646;2023-04-24T04:13:47;10.10;99.90
31542;DHT22;18152;49.986;8.646;2023-04-24T04:16:13;10.10;99.90
31542;DHT22;18152;49.986;8.646;2023-04-24T04:18:39;10.00;99.90
31542;DHT22;18152;49.986;8.646;2023-04-24T04:21:04;10.00;99.90
31542;DHT22;18152;49.986;8.646;2023-04-24T04:23:30;10.00;99.90
31542;DHT22;18152;49.986;8.646;2023-04-24T04:25:57;9.90;99.90
31542;DHT22;18152;49.986;8.646;2023-04-24T04:28:23;10.00;99.90
31542;DHT22;18152;49.986;8.646;2023-04-24T04:30:50;9.90;99.90
31542;DHT22;18152;49.986;8.646;2023-04-24T04:33:21;9.80;99.90
31542;DHT22;18152;49.986;8.646;2023-04-24T04:35:47;9.80;99.90
31542;DHT22;18152;49.986;8.646;2023-04-24T04:38:22;9.70;99.90
31542;DHT22;18152;49.986;8.646;2023-04-24T04:40:48;9.70;99.90
31542;DHT22;18152;49.986;8.646;2023-04-24T04:43:13;9.60;99.90
31542;DHT22;18152;49.986;8.646;2023-04-24T04:45:40;9.60;99.90
31542;DHT22;18152;49.986;8.646;2023-04-24T04:48:07;9.60;99.90
31542;DHT22;18152;49.986;8.646;2023-04-24T04:50:34;9.60;99.90
31542;DHT22;18152;49.986;8.646;2023-04-24T04:53:00;9.60;99.90
31542;DHT22;18152;49.986;8.646;2023-04-24T04:55:25;9.50;99.90
31542;DHT22;18152;49.986;8.646;2023-04-24T04:57:51;9.40;99.90
31542;DHT22;18152;49.986;8.646;2023-04-24T05:00:17;9.50;99.90
31542;DHT22;18152;49.986;8.646;2023-04-24T05:02:43;9.50;99.90
31542;DHT22;18152;49.986;8.646;2023-04-24T05:05:09;9.40;99.90
31542;DHT22;18152;49.986;8.646;2023-04-24T05:07:35;9.50;99.90
31542;DHT22;18152;49.986;8.646;2023-04-24T05:10:00;9.60;99.90
31542;DHT22;18152;49.986;8.646;2023-04-24T05:12:26;9.70;99.90
31542;DHT22;18152;49.986;8.646;2023-04-24T05:14:52;9.60;99.90
31542;DHT22;18152;49.986;8.646;2023-04-24T05:17:18;9.70;99.90
31542;DHT22;18152;49.986;8.646;2023-04-24T05:19:44;9.70;99.90
31542;DHT22;18152;49.986;8.646;2023-04-24T05:22:09;9.90;99.90
31542;DHT22;18152;49.986;8.646;2023-04-24T05:24:36;10.10;99.90
31542;DHT22;18152;49.986;8.646;2023-04-24T05:27:04;10.20;99.90
31542;DHT22;18152;49.986;8.646;2023-04-24T05:29:30;10.30;99.90
31542;DHT22;18152;49.986;8.646;2023-04-24T05:31:57;10.20;99.90
31542;DHT22;18152;49.986;8.646;2023-04-24T05:34:23;10.30;99.90
31542;DHT22;18152;49.986;8.646;2023-04-24T05:36:49;10.60;99.90
31542;DHT22;18152;49.986;8.646;2023-04-24T05:39:15;10.60;99.90
31542;DHT22;18152;49.986;8.646;2023-04-24T05:41:41;10.60;99.90
31542;DHT22;18152;49.986;8.646;2023-04-24T05:44:07;10.90;99.90
31542;DHT22;18152;49.986;8.646;2023-04-24T05:46:32;11.00;99.90
31542;DHT22;18152;49.986;8.646;2023-04-24T05:48:58;11.10;99.90
31542;DHT22;18152;49.986;8.646;2023-04-24T05:51:24;11.30;99.90
31542;DHT22;18152;49.986;8.646;2023-04-24T05:53:49;11.30;99.90
31542;DHT22;18152;49.986;8.646;2023-04-24T05:56:15;11.50;99.90
31542;DHT22;18152;49.986;8.646;2023-04-24T05:58:41;11.80;99.90
31542;DHT22;18152;49.986;8.646;2023-04-24T06:01:06;11.90;99.90
31542;DHT22;18152;49.986;8.646;2023-04-24T06:03:32;12.10;99.90
31542;DHT22;18152;49.986;8.646;2023-04-24T06:05:58;12.30;99.90
31542;DHT22;18152;49.986;8.646;2023-04-24T06:08:24;12.70;99.90
31542;DHT22;18152;49.986;8.646;2023-04-24T06:10:49;12.90;99.90
31542;DHT22;18152;49.986;8.646;2023-04-24T06:13:15;12.70;99.90
31542;DHT22;18152;49.986;8.646;2023-04-24T06:15:41;12.70;99.90
31542;DHT22;18152;49.986;8.646;2023-04-24T06:18:07;12.90;99.90
31542;DHT22;18152;49.986;8.646;2023-04-24T06:20:33;13.00;99.90
31542;DHT22;18152;49.986;8.646;2023-04-24T06:22:58;13.20;99.90
31542;DHT22;18152;49.986;8.646;2023-04-24T06:25:28;13.40;99.90
31542;DHT22;18152;49.986;8.646;2023-04-24T06:27:54;14.20;99.90
31542;DHT22;18152;49.986;8.646;2023-04-24T06:30:20;15.00;99.90
31542;DHT22;18152;49.986;8.646;2023-04-24T06:32:45;15.30;99.90
31542;DHT22;18152;49.986;8.646;2023-04-24T06:35:11;15.50;99.90
31542;DHT22;18152;49.986;8.646;2023-04-24T06:37:39;15.00;99.90
31542;DHT22;18152;49.986;8.646;2023-04-24T06:40:05;14.20;99.90
31542;DHT22;18152;49.986;8.646;2023-04-24T06:42:31;13.40;99.90
31542;DHT22;18152;49.986;8.646;2023-04-24T06:44:56;12.80;99.90
31542;DHT22;18152;49.986;8.646;2023-04-24T06:47:22;12.50;99.90
31542;DHT22;18152;49.986;8.646;2023-04-24T06:49:48;12.10;99.90
31542;DHT22;18152;49.986;8.646;2023-04-24T06:52:16;11.80;99.90
31542;DHT22;18152;49.986;8.646;2023-04-24T06:54:42;11.80;99.90
31542;DHT22;18152;49.986;8.646;2023-04-24T06:57:08;11.80;99.90
31542;DHT22;18152;49.986;8.646;2023-04-24T06:59:34;12.10;99.90
31542;DHT22;18152;49.986;8.646;2023-04-24T07:02:00;12.70;99.90
31542;DHT22;18152;49.986;8.646;2023-04-24T07:04:25;13.20;99.90
31542;DHT22;18152;49.986;8.646;2023-04-24T07:06:51;13.70;99.90
31542;DHT22;18152;49.986;8.646;2023-04-24T07:09:19;13.50;99.90
31542;DHT22;18152;49.986;8.646;2023-04-24T07:11:45;13.20;99.90
31542;DHT22;18152;49.986;8.646;2023-04-24T07:14:11;13.90;99.90
31542;DHT22;18152;49.986;8.646;2023-04-24T07:16:37;13.90;99.90
31542;DHT22;18152;49.986;8.646;2023-04-24T07:19:03;13.20;99.90
31542;DHT22;18152;49.986;8.646;2023-04-24T07:21:29;13.30;99.90
31542;DHT22;18152;49.986;8.646;2023-04-24T07:23:59;13.50;99.90
31542;DHT22;18152;49.986;8.646;2023-04-24T07:26:26;14.40;99.90
31542;DHT22;18152;49.986;8.646;2023-04-24T07:28:52;14.40;99.90
31542;DHT22;18152;49.986;8.646;2023-04-24T07:31:18;13.40;99.90
31542;DHT22;18152;49.986;8.646;2023-04-24T07:33:44;13.10;99.90
31542;DHT22;18152;49.986;8.646;2023-04-24T07:36:09;12.70;99.90
31542;DHT22;18152;49.986;8.646;2023-04-24T07:38:43;12.50;99.90
31542;DHT22;18152;49.986;8.646;2023-04-24T07:41:09;12.30;99.90
31542;DHT22;18152;49.986;8.646;2023-04-24T07:43:35;12.10;99.90
31542;DHT22;18152;49.986;8.646;2023-04-24T07:46:00;12.10;99.90
31542;DHT22;18152;49.986;8.646;2023-04-24T07:48:26;13.20;99.90
31542;DHT22;18152;49.986;8.646;2023-04-24T07:50:52;14.70;99.90
31542;DHT22;18152;49.986;8.646;2023-04-24T07:53:18;15.20;99.90
31542;DHT22;18152;49.986;8.646;2023-04-24T07:55:44;15.80;99.90
31542;DHT22;18152;49.986;8.646;2023-04-24T07:58:09;15.50;99.90
31542;DHT22;18152;49.986;8.646;2023-04-24T08:00:35;15.20;99.90
31542;DHT22;18152;49.986;8.646;2023-04-24T08:03:01;14.50;99.90
31542;DHT22;18152;49.986;8.646;2023-04-24T08:05:26;14.70;99.90
31542;DHT22;18152;49.986;8.646;2023-04-24T08:07:54;14.50;99.90
31542;DHT22;18152;49.986;8.646;2023-04-24T08:10:21;15.00;99.90
31542;DHT22;18152;49.986;8.646;2023-04-24T08:12:47;15.80;98.30
31542;DHT22;18152;49.986;8.646;2023-04-24T08:15:12;14.90;99.90
31542;DHT22;18152;49.986;8.646;2023-04-24T08:17:38;15.80;99.90
31542;DHT22;18152;49.986;8.646;2023-04-24T08:20:04;15.60;99.90
31542;DHT22;18152;49.986;8.646;2023-04-24T08:22:30;15.80;99.70
31542;DHT22;18152;49.986;8.646;2023-04-24T08:24:56;16.70;97.80
31542;DHT22;18152;49.986;8.646;2023-04-24T08:27:22;17.30;95.30
31542;DHT22;18152;49.986;8.646;2023-04-24T08:29:48;16.60;99.10
31542;DHT22;18152;49.986;8.646;2023-04-24T08:32:14;16.10;94.70
31542;DHT22;18152;49.986;8.646;2023-04-24T08:34:40;16.70;98.40
31542;DHT22;18152;49.986;8.646;2023-04-24T08:37:05;18.00;96.80
31542;DHT22;18152;49.986;8.646;2023-04-24T08:39:31;19.00;93.20
31542;DHT22;18152;49.986;8.646;2023-04-24T08:41:57;18.60;90.60
31542;DHT22;18152;49.986;8.646;2023-04-24T08:44:23;17.50;90.90
31542;DHT22;18152;49.986;8.646;2023-04-24T08:46:49;16.60;94.60
31542;DHT22;18152;49.986;8.646;2023-04-24T08:49:15;15.90;93.90
31542;DHT22;18152;49.986;8.646;2023-04-24T08:51:44;15.40;99.90
31542;DHT22;18152;49.986;8.646;2023-04-24T08:54:11;15.00;95.80
31542;DHT22;18152;49.986;8.646;2023-04-24T08:56:38;14.30;96.50
31542;DHT22;18152;49.986;8.646;2023-04-24T08:59:06;14.00;97.00
31542;DHT22;18152;49.986;8.646;2023-04-24T09:01:32;14.00;97.90
31542;DHT22;18152;49.986;8.646;2023-04-24T09:04:03;13.80;99.70
31542;DHT22;18152;49.986;8.646;2023-04-24T09:06:30;13.60;98.70
31542;DHT22;18152;49.986;8.646;2023-04-24T09:08:58;13.40;99.20
31542;DHT22;18152;49.986;8.646;2023-04-24T09:11:25;13.10;99.70
31542;DHT22;18152;49.986;8.646;2023-04-24T09:13:51;12.90;99.90
31542;DHT22;18152;49.986;8.646;2023-04-24T09:16:17;12.60;99.20
31542;DHT22;18152;49.986;8.646;2023-04-24T09:18:43;12.60;99.90
31542;DHT22;18152;49.986;8.646;2023-04-24T09:21:09;12.40;99.90
31542;DHT22;18152;49.986;8.646;2023-04-24T09:23:34;12.60;99.90
31542;DHT22;18152;49.986;8.646;2023-04-24T09:26:02;12.40;99.90
31542;DHT22;18152;49.986;8.646;2023-04-24T09:28:32;12.20;99.70
31542;DHT22;18152;49.986;8.646;2023-04-24T09:31:11;12.20;99.90
31542;DHT22;18152;49.986;8.646;2023-04-24T09:33:37;12.30;99.90
31542;DHT22;18152;49.986;8.646;2023-04-24T09:36:03;12.20;99.90
31542;DHT22;18152;49.986;8.646;2023-04-24T09:38:36;12.20;99.90
31542;DHT22;18152;49.986;8.646;2023-04-24T09:41:05;12.10;99.90
31542;DHT22;18152;49.986;8.646;2023-04-24T09:43:31;12.20;99.90
31542;DHT22;18152;49.986;8.646;2023-04-24T09:45:58;12.20;99.90
31542;DHT22;18152;49.986;8.646;2023-04-24T09:48:34;11.90;99.90
31542;DHT22;18152;49.986;8.646;2023-04-24T09:51:02;11.90;99.90
31542;DHT22;18152;49.986;8.646;2023-04-24T09:53:30;11.80;99.90
31542;DHT22;18152;49.986;8.646;2023-04-24T09:55:56;11.80;99.90
31542;DHT22;18152;49.986;8.646;2023-04-24T09:58:27;11.90;99.90
31542;DHT22;18152;49.986;8.646;2023-04-24T10:00:55;11.90;99.90
31542;DHT22;18152;49.986;8.646;2023-04-24T10:03:21;12.10;99.90
31542;DHT22;18152;49.986;8.646;2023-04-24T10:05:48;12.20;99.90
31542;DHT22;18152;49.986;8.646;2023-04-24T10:08:16;12.20;99.90
31542;DHT22;18152;49.986;8.646;2023-04-24T10:10:44;12.20;99.90
31542;DHT22;18152;49.986;8.646;2023-04-24T10:13:11;12.30;99.90
31542;DHT22;18152;49.986;8.646;2023-04-24T10:15:38;12.30;99.90
31542;DHT22;18152;49.986;8.646;2023-04-24T10:18:04;12.30;99.90
31542;DHT22;18152;49.986;8.646;2023-04-24T10:20:33;12.20;99.90
31542;DHT22;18152;49.986;8.646;2023-04-24T10:22:59;12.20;99.90
31542;DHT22;18152;49.986;8.646;2023-04-24T10:25:28;12.20;99.90
31542;DHT22;18152;49.986;8.646;2023-04-24T10:27:54;12.10;99.90
31542;DHT22;18152;49.986;8.646;2023-04-24T10:30:29;12.00;99.90
31542;DHT22;18152;49.986;8.646;2023-04-24T10:32:55;12.00;99.90
31542;DHT22;18152;49.986;8.646;2023-04-24T10:35:22;12.10;99.90
31542;DHT22;18152;49.986;8.646;2023-04-24T10:37:56;12.20;99.90
31542;DHT22;18152;49.986;8.646;2023-04-24T10:40:35;12.30;99.90
31542;DHT22;18152;49.986;8.646;2023-04-24T10:43:05;12.30;99.90
31542;DHT22;18152;49.986;8.646;2023-04-24T10:45:33;13.20;99.90
31542;DHT22;18152;49.986;8.646;2023-04-24T10:48:02;13.70;99.90
31542;DHT22;18152;49.986;8.646;2023-04-24T10:50:29;13.80;99.90
31542;DHT22;18152;49.986;8.646;2023-04-24T10:53:06;13.90;99.90
31542;DHT22;18152;49.986;8.646;2023-04-24T10:55:44;13.70;99.90
31542;DHT22;18152;49.986;8.646;2023-04-24T10:58:10;13.40;99.90
31542;DHT22;18152;49.986;8.646;2023-04-24T11:00:37;13.10;99.90
31542;DHT22;18152;49.986;8.646;2023-04-24T11:03:22;12.90;99.90
31542;DHT22;18152;49.986;8.646;2023-04-24T11:05:55;12.70;99.90
31542;DHT22;18152;49.986;8.646;2023-04-24T11:08:26;12.90;99.90
31542;DHT22;18152;49.986;8.646;2023-04-24T11:10:57;13.90;99.90
31542;DHT22;18152;49.986;8.646;2023-04-24T11:13:25;15.00;99.90
31542;DHT22;18152;49.986;8.646;2023-04-24T11:16:20;14.90;99.90
31542;DHT22;18152;49.986;8.646;2023-04-24T11:18:51;15.10;99.90
31542;DHT22;18152;49.986;8.646;2023-04-24T11:21:19;14.20;99.90
31542;DHT22;18152;49.986;8.646;2023-04-24T11:23:45;14.20;99.90
31542;DHT22;18152;49.986;8.646;2023-04-24T11:26:14;14.60;99.90
31542;DHT22;18152;49.986;8.646;2023-04-24T11:28:48;15.30;99.90
31542;DHT22;18152;49.986;8.646;2023-04-24T11:31:33;15.20;99.90
31542;DHT22;18152;49.986;8.646;2023-04-24T11:34:12;14.90;99.90
31542;DHT22;18152;49.986;8.646;2023-04-24T11:36:40;14.70;99.90
31542;DHT22;18152;49.986;8.646;2023-04-24T11:39:07;14.90;99.90
31542;DHT22;18152;49.986;8.646;2023-04-24T11:41:33;14.90;99.90
31542;DHT22;18152;49.986;8.646;2023-04-24T11:43:59;14.40;99.90
31542;DHT22;18152;49.986;8.646;2023-04-24T11:46:29;14.00;99.90
31542;DHT22;18152;49.986;8.646;2023-04-24T11:48:56;13.50;99.90
31542;DHT22;18152;49.986;8.646;2023-04-24T11:51:23;13.10;99.90
31542;DHT22;18152;49.986;8.646;2023-04-24T11:53:49;12.60;99.90
31542;DHT22;18152;49.986;8.646;2023-04-24T11:56:18;12.20;99.90
31542;DHT22;18152;49.986;8.646;2023-04-24T11:58:44;12.20;99.90
31542;DHT22;18152;49.986;8.646;2023-04-24T12:01:11;12.30;99.90
31542;DHT22;18152;49.986;8.646;2023-04-24T12:03:36;13.10;99.90
31542;DHT22;18152;49.986;8.646;2023-04-24T12:06:09;13.10;99.90
31542;DHT22;18152;49.986;8.646;2023-04-24T12:08:36;13.80;99.90
31542;DHT22;18152;49.986;8.646;2023-04-24T12:11:03;14.20;99.90
31542;DHT22;18152;49.986;8.646;2023-04-24T12:13:29;14.40;99.90
31542;DHT22;18152;49.986;8.646;2023-04-24T12:15:57;16.00;99.90
31542;DHT22;18152;49.986;8.646;2023-04-24T12:18:23;16.50;99.90
31542;DHT22;18152;49.986;8.646;2023-04-24T12:20:49;15.60;99.90
31542;DHT22;18152;49.986;8.646;2023-04-24T12:23:15;15.60;99.90
31542;DHT22;18152;49.986;8.646;2023-04-24T12:25:40;16.30;99.90
31542;DHT22;18152;49.986;8.646;2023-04-24T12:30:44;16.00;99.90
31542;DHT22;18152;49.986;8.646;2023-04-24T12:33:10;15.50;99.90
31542;DHT22;18152;49.986;8.646;2023-04-24T12:35:36;14.60;99.90
31542;DHT22;18152;49.986;8.646;2023-04-24T12:38:09;13.90;99.90
31542;DHT22;18152;49.986;8.646;2023-04-24T12:40:35;13.30;99.90
31542;DHT22;18152;49.986;8.646;2023-04-24T12:43:01;12.70;99.90
31542;DHT22;18152;49.986;8.646;2023-04-24T12:45:27;12.40;99.90
31542;DHT22;18152;49.986;8.646;2023-04-24T12:47:53;12.00;99.90
31542;DHT22;18152;49.986;8.646;2023-04-24T12:50:19;11.70;99.90
31542;DHT22;18152;49.986;8.646;2023-04-24T12:52:44;11.50;99.90
31542;DHT22;18152;49.986;8.646;2023-04-24T12:55:11;11.40;99.90
31542;DHT22;18152;49.986;8.646;2023-04-24T12:57:38;11.30;99.90
31542;DHT22;18152;49.986;8.646;2023-04-24T13:00:06;11.30;99.90
31542;DHT22;18152;49.986;8.646;2023-04-24T13:02:33;11.40;99.90
31542;DHT22;18152;49.986;8.646;2023-04-24T13:04:59;11.60;99.90
31542;DHT22;18152;49.986;8.646;2023-04-24T13:07:25;11.90;99.90
31542;DHT22;18152;49.986;8.646;2023-04-24T13:09:51;12.40;99.90
31542;DHT22;18152;49.986;8.646;2023-04-24T13:12:17;13.40;99.90
31542;DHT22;18152;49.986;8.646;2023-04-24T13:14:43;13.70;99.90
31542;DHT22;18152;49.986;8.646;2023-04-24T13:17:09;13.90;99.90
31542;DHT22;18152;49.986;8.646;2023-04-24T13:19:36;13.90;99.90
31542;DHT22;18152;49.986;8.646;2023-04-24T13:22:03;14.20;99.90
31542;DHT22;18152;49.986;8.646;2023-04-24T13:24:28;14.50;99.90
31542;DHT22;18152;49.986;8.646;2023-04-24T13:26:54;15.00;99.90
31542;DHT22;18152;49.986;8.646;2023-04-24T13:29:22;15.00;99.90
31542;DHT22;18152;49.986;8.646;2023-04-24T13:31:49;14.40;99.90
31542;DHT22;18152;49.986;8.646;2023-04-24T13:34:15;14.40;99.90
31542;DHT22;18152;49.986;8.646;2023-04-24T13:36:40;14.20;99.90
31542;DHT22;18152;49.986;8.646;2023-04-24T13:39:06;14.00;99.90
31542;DHT22;18152;49.986;8.646;2023-04-24T13:41:33;13.90;99.90
31542;DHT22;18152;49.986;8.646;2023-04-24T13:43:58;13.90;99.90
31542;DHT22;18152;49.986;8.646;2023-04-24T13:46:24;13.80;99.90
31542;DHT22;18152;49.986;8.646;2023-04-24T13:48:50;13.40;99.90
31542;DHT22;18152;49.986;8.646;2023-04-24T13:51:15;13.10;99.90
31542;DHT22;18152;49.986;8.646;2023-04-24T13:53:41;12.90;99.90
31542;DHT22;18152;49.986;8.646;2023-04-24T13:56:06;12.30;99.90
31542;DHT22;18152;49.986;8.646;2023-04-24T13:58:33;12.20;99.90
31542;DHT22;18152;49.986;8.646;2023-04-24T14:00:58;12.20;99.90
31542;DHT22;18152;49.986;8.646;2023-04-24T14:03:24;12.00;99.90
31542;DHT22;18152;49.986;8.646;2023-04-24T14:05:50;12.10;99.90
31542;DHT22;18152;49.986;8.646;2023-04-24T14:08:15;12.40;99.90
31542;DHT22;18152;49.986;8.646;2023-04-24T14:10:42;12.60;99.90
31542;DHT22;18152;49.986;8.646;2023-04-24T14:13:07;12.80;99.90
31542;DHT22;18152;49.986;8.646;2023-04-24T14:15:35;13.10;99.90
31542;DHT22;18152;49.986;8.646;2023-04-24T14:18:01;13.30;99.90
31542;DHT22;18152;49.986;8.646;2023-04-24T14:20:26;13.60;99.90
31542;DHT22;18152;49.986;8.646;2023-04-24T14:22:52;13.70;99.90
31542;DHT22;18152;49.986;8.646;2023-04-24T14:25:18;13.50;99.90
31542;DHT22;18152;49.986;8.646;2023-04-24T14:27:44;13.30;99.90
31542;DHT22;18152;49.986;8.646;2023-04-24T14:30:09;13.20;99.90
31542;DHT22;18152;49.986;8.646;2023-04-24T14:32:35;13.10;99.90
31542;DHT22;18152;49.986;8.646;2023-04-24T14:35:01;13.10;99.90
31542;DHT22;18152;49.986;8.646;2023-04-24T14:37:26;13.10;99.90
31542;DHT22;18152;49.986;8.646;2023-04-24T14:39:52;13.10;99.90
31542;DHT22;18152;49.986;8.646;2023-04-24T14:42:18;13.20;99.90
31542;DHT22;18152;49.986;8.646;2023-04-24T14:44:43;13.30;99.90
31542;DHT22;18152;49.986;8.646;2023-04-24T14:47:09;13.30;99.90
31542;DHT22;18152;49.986;8.646;2023-04-24T14:49:34;13.20;99.90
31542;DHT22;18152;49.986;8.646;2023-04-24T14:52:00;13.20;99.90
31542;DHT22;18152;49.986;8.646;2023-04-24T14:54:28;13.20;99.90
31542;DHT22;18152;49.986;8.646;2023-04-24T14:56:54;13.10;99.90
31542;DHT22;18152;49.986;8.646;2023-04-24T14:59:22;13.10;99.90
31542;DHT22;18152;49.986;8.646;2023-04-24T15:01:47;13.00;99.90
31542;DHT22;18152;49.986;8.646;2023-04-24T15:04:13;13.00;99.90
31542;DHT22;18152;49.986;8.646;2023-04-24T15:06:38;12.90;99.90
31542;DHT22;18152;49.986;8.646;2023-04-24T15:09:04;13.00;99.90
31542;DHT22;18152;49.986;8.646;2023-04-24T15:11:30;13.00;99.90
31542;DHT22;18152;49.986;8.646;2023-04-24T15:13:56;13.00;99.90
31542;DHT22;18152;49.986;8.646;2023-04-24T15:16:23;13.00;99.90
31542;DHT22;18152;49.986;8.646;2023-04-24T15:18:48;13.10;99.90
31542;DHT22;18152;49.986;8.646;2023-04-24T15:21:14;13.20;99.90
31542;DHT22;18152;49.986;8.646;2023-04-24T15:23:39;13.20;99.90
31542;DHT22;18152;49.986;8.646;2023-04-24T15:26:05;13.40;99.90
31542;DHT22;18152;49.986;8.646;2023-04-24T15:28:30;13.60;99.90
31542;DHT22;18152;49.986;8.646;2023-04-24T15:30:56;13.70;99.90